»·PEaware :: SKW472 KABQ-KPHX

SKW472 :: KABQ-KPHX

FLIGHT INFORMATION

Flight Status: Arrived
Operator:
SkyWest Airlines
More flights by this operator :: More flights under this callsign
Pilot: Anonymous 17611 (17611)
Aircraft: EMBRAER EMB-170/175
(E170)
More flights by this aircraft type
Origin: KABQ Albuquerque Intl Sunport
United States
Destination: KPHX Phoenix Sky Harbor Intl
United States
More flights between these airports :: More routes between these airports
Route: ADYOS3 ZUN EAGUL6
File this flight plan on PilotEdge
Remarks:
Altitude:
(Current/Filed)
34,000ft
Speed:
(Current/Filed)
412kts
Departed: 14-May-18 03:27 PM
Arrived: 14-May-18 04:21 PM
Distance/Time
Traveled:
284nm/0:54
Distance/Time
To Go:
Arrived

Flight Plot

Page will automatically refresh every two minutes.

Flight plan parsing failed; only flown route is shown


Map Options




Map Legend


Flown Route
Filed Route
Departure Airport
Arrival Airport
Navaid (VOR, NDB)
Fix

Horizontal Profiles

Position Reports

Time Latitude Longitude Heading Altitude Ground
Speed
14-May-18 14:57 35.047874 -106.614348 209 5313ft 0kts
14-May-18 14:58 35.047874 -106.614348 209 5313ft 0kts
14-May-18 14:59 35.047874 -106.614348 209 5313ft 0kts
14-May-18 15:00 35.047874 -106.614348 209 5313ft 0kts
14-May-18 15:01 35.047874 -106.614348 209 5313ft 0kts
14-May-18 15:02 35.047874 -106.614348 209 5313ft 0kts
14-May-18 15:03 35.047874 -106.614348 209 5313ft 0kts
14-May-18 15:04 35.047874 -106.614348 209 5313ft 0kts
14-May-18 15:05 35.047874 -106.614348 209 5313ft 0kts
14-May-18 15:06 35.047874 -106.614348 209 5313ft 0kts
14-May-18 15:07 35.047874 -106.614348 209 5313ft 0kts
14-May-18 15:08 35.047874 -106.614348 209 5313ft 0kts
14-May-18 15:09 35.047874 -106.614348 209 5313ft 0kts
14-May-18 15:10 35.047874 -106.614348 209 5313ft 0kts
14-May-18 15:11 35.047874 -106.614348 209 5313ft 0kts
14-May-18 15:12 35.047874 -106.614348 209 5313ft 0kts
14-May-18 15:13 35.047874 -106.614348 209 5313ft 0kts
14-May-18 15:14 35.047874 -106.614348 209 5313ft 0kts
14-May-18 15:15 35.048082 -106.614294 171 5313ft 2kts
14-May-18 15:16 35.048372 -106.614735 87 5311ft 0kts
14-May-18 15:17 35.048372 -106.614735 87 5311ft 0kts
14-May-18 15:18 35.048376 -106.614028 89 5313ft 4kts
14-May-18 15:19 35.047147 -106.613096 181 5317ft 9kts
14-May-18 15:20 35.045804 -106.609819 89 5318ft 18kts
14-May-18 15:21 35.045755 -106.602047 88 5321ft 27kts
14-May-18 15:22 35.045835 -106.593021 90 5327ft 23kts
14-May-18 15:23 35.045778 -106.584987 89 5336ft 24kts
14-May-18 15:24 35.045728 -106.576822 91 5350ft 17kts
14-May-18 15:25 35.045098 -106.575757 168 5350ft 0kts
14-May-18 15:26 35.044084 -106.577602 270 5347ft 19kts
14-May-18 15:27 35.044211 -106.609086 270 5840ft 154kts
14-May-18 15:28 35.044418 -106.664896 268 7657ft 194kts
14-May-18 15:29 35.044249 -106.745707 267 9556ft 282kts
14-May-18 15:30 35.045039 -106.850798 269 12569ft 332kts
14-May-18 15:31 35.047612 -106.963724 266 16312ft 342kts
14-May-18 15:32 35.043961 -107.079571 265 19564ft 352kts
14-May-18 15:33 35.040158 -107.193464 265 20116ft 354kts
14-May-18 15:34 35.036455 -107.313242 265 20116ft 354kts
14-May-18 15:35 35.033036 -107.434180 265 22505ft 363kts
14-May-18 15:36 35.029140 -107.557561 265 24831ft 372kts
14-May-18 15:37 35.024944 -107.683233 265 26814ft 380kts
14-May-18 15:38 35.020548 -107.812960 265 28555ft 387kts
14-May-18 15:39 35.015946 -107.945034 265 30069ft 394kts
14-May-18 15:40 35.011205 -108.076322 265 31833ft 387kts
14-May-18 15:41 35.006319 -108.206110 265 33264ft 381kts
14-May-18 15:42 35.001334 -108.334204 265 34149ft 393kts
14-May-18 15:43 34.995923 -108.468897 265 34141ft 399kts
14-May-18 15:44 34.990490 -108.603842 265 34143ft 400kts
14-May-18 15:45 34.985047 -108.734099 265 34156ft 400kts
14-May-18 15:46 34.979233 -108.869065 265 34144ft 399kts
14-May-18 15:47 34.973189 -109.004036 265 34127ft 400kts
14-May-18 15:48 34.966208 -109.139418 260 34103ft 400kts
14-May-18 15:49 34.929313 -109.265948 245 34095ft 399kts
14-May-18 15:50 34.882011 -109.386055 245 34098ft 400kts
14-May-18 15:51 34.835540 -109.508983 246 34097ft 400kts
14-May-18 15:52 34.790641 -109.632297 246 34093ft 400kts
14-May-18 15:53 34.746469 -109.752059 246 34116ft 400kts
14-May-18 15:54 34.701112 -109.874682 246 34142ft 400kts
14-May-18 15:55 34.655572 -109.997034 246 34146ft 400kts
14-May-18 15:56 34.609637 -110.119892 245 34145ft 400kts
14-May-18 15:57 34.571536 -110.245221 247 34136ft 399kts
14-May-18 15:58 34.527505 -110.367987 246 34130ft 400kts
14-May-18 15:59 34.482928 -110.492713 247 32587ft 409kts
14-May-18 16:00 34.420456 -110.606358 231 30137ft 416kts
14-May-18 16:01 34.368811 -110.730473 243 27770ft 420kts
14-May-18 16:02 34.312145 -110.845989 232 25767ft 394kts
14-May-18 16:03 34.241321 -110.943352 227 23950ft 389kts
14-May-18 16:04 34.167710 -111.037359 226 21829ft 381kts
14-May-18 16:05 34.096278 -111.129308 227 19796ft 374kts
14-May-18 16:06 34.025785 -111.219871 226 17843ft 366kts
14-May-18 16:07 33.956902 -111.307709 226 16002ft 359kts
14-May-18 16:08 33.890485 -111.391956 225 14273ft 339kts
14-May-18 16:09 33.818299 -111.458661 214 12724ft 323kts
14-May-18 16:10 33.762552 -111.504964 215 11573ft 288kts
14-May-18 16:11 33.698155 -111.560491 216 10376ft 283kts
14-May-18 16:12 33.640327 -111.610150 215 9131ft 243kts
14-May-18 16:13 33.574308 -111.665611 216 6582ft 239kts
14-May-18 16:14 33.525858 -111.706910 216 5841ft 228kts
14-May-18 16:15 33.477375 -111.749504 226 5323ft 205kts
14-May-18 16:16 33.444450 -111.803427 235 4211ft 201kts
14-May-18 16:17 33.440574 -111.866569 268 3386ft 189kts
14-May-18 16:18 33.440667 -111.920743 270 2303ft 141kts
14-May-18 16:19 33.440820 -111.959986 271 1723ft 137kts
14-May-18 16:20 33.440825 -112.003038 268 1130ft 70kts
14-May-18 16:21 33.439708 -112.007364 182 1128ft 3kts
14-May-18 16:22 33.437412 -112.007641 266 1125ft 4kts

Navigation Log

Ident Type
Flight plan parsing failed, navigation log unavailable